Time;durP1;ratioP1;P1;durP2;ratioP2;P2;SDS_P1;SDS_P2;PMS_P1;PMS_P2;Temp;Humidity;BMP_temperature;BMP_pressure;BME280_temperature;BME280_humidity;BME280_pressure;Samples;Min_cycle;Max_cycle;Signal;HPM_P1;HPM_P2
2023/05/08 00:01:42;;;;;;;3.53;3.00;;;;;;;17.28;100.00;100923.97;5013168;28;20054;-87
2023/05/08 00:04:09;;;;;;;4.78;3.00;;;;;;;17.19;100.00;100913.69;4996228;28;20057;-88
2023/05/08 00:06:37;;;;;;;5.60;3.00;;;;;;;17.35;100.00;100910.47;4995921;28;20392;-88
2023/05/08 00:09:05;;;;;;;4.43;3.10;;;;;;;17.51;100.00;100915.59;5012837;28;20069;-88
2023/05/08 00:11:33;;;;;;;4.40;3.15;;;;;;;17.64;100.00;100922.97;4995285;28;20061;-88
2023/05/08 00:14:01;;;;;;;4.63;3.00;;;;;;;17.71;100.00;100906.72;4995369;28;20046;-88
2023/05/08 00:16:30;;;;;;;6.03;3.20;;;;;;;17.85;100.00;100917.69;5012067;28;20064;-87
2023/05/08 00:18:59;;;;;;;4.60;2.60;;;;;;;17.85;100.00;100911.34;5013079;28;20045;-88
2023/05/08 00:21:27;;;;;;;2.15;1.90;;;;;;;17.67;100.00;100916.81;5012796;28;20483;-88
2023/05/08 00:23:54;;;;;;;3.13;2.40;;;;;;;17.67;100.00;100916.00;5012640;28;20053;-88
2023/05/08 00:26:22;;;;;;;4.20;2.20;;;;;;;17.65;100.00;100905.22;4994915;28;20494;-88
2023/05/08 00:28:50;;;;;;;4.70;3.00;;;;;;;17.76;100.00;100899.41;4997449;28;20492;-87
2023/05/08 00:31:18;;;;;;;4.00;2.50;;;;;;;17.69;100.00;100892.41;5012349;28;20044;-87
2023/05/08 00:33:46;;;;;;;5.28;2.58;;;;;;;17.59;100.00;100881.63;5012724;28;20053;-87
2023/05/08 00:36:14;;;;;;;2.35;2.15;;;;;;;17.68;100.00;100874.16;5012327;28;20586;-86
2023/05/08 00:38:42;;;;;;;2.83;2.22;;;;;;;17.72;100.00;100880.69;4994778;28;20049;-86
2023/05/08 00:41:10;;;;;;;2.30;2.10;;;;;;;17.71;100.00;100879.03;4994899;28;20046;-86
2023/05/08 00:43:38;;;;;;;3.30;1.88;;;;;;;17.73;100.00;100896.16;4994817;28;20049;-86
2023/05/08 00:46:08;;;;;;;3.85;2.25;;;;;;;17.77;100.00;100887.19;4993921;28;20053;-87
2023/05/08 00:48:38;;;;;;;2.30;2.10;;;;;;;17.83;100.00;100883.97;5012367;28;20050;-87
2023/05/08 00:51:09;;;;;;;2.17;1.98;;;;;;;17.82;100.00;100875.97;4993660;28;20480;-87
2023/05/08 00:53:39;;;;;;;2.22;2.03;;;;;;;17.84;100.00;100876.50;4994245;28;20049;-88
2023/05/08 00:56:12;;;;;;;3.28;2.28;;;;;;;17.92;100.00;100875.69;5012053;28;20053;-87
2023/05/08 00:58:42;;;;;;;4.00;2.23;;;;;;;17.93;100.00;100888.38;5011100;28;20050;-88
2023/05/08 01:01:10;;;;;;;2.40;2.08;;;;;;;17.88;100.00;100883.00;4994526;28;20049;-87
2023/05/08 01:03:39;;;;;;;2.58;2.20;;;;;;;17.83;100.00;100883.16;4994406;28;20050;-88
2023/05/08 01:06:07;;;;;;;3.22;2.03;;;;;;;17.75;100.00;100875.66;5012268;28;20050;-88
2023/05/08 01:08:35;;;;;;;1.95;1.83;;;;;;;17.67;100.00;100880.84;5011942;28;20077;-88
2023/05/08 01:11:12;;;;;;;2.85;2.17;;;;;;;17.69;100.00;100870.25;4993860;28;20129;-88
2023/05/08 01:13:51;;;;;;;2.67;2.05;;;;;;;17.68;100.00;100878.88;4994253;28;20058;-89
2023/05/08 01:16:36;;;;;;;2.13;1.88;;;;;;;17.90;100.00;100868.84;5011768;28;20049;-89
2023/05/08 01:19:13;;;;;;;2.65;2.40;;;;;;;17.88;100.00;100866.38;4994145;28;20069;-89
2023/05/08 01:21:52;;;;;;;3.58;2.00;;;;;;;17.77;100.00;100859.53;4997027;28;20056;-89
2023/05/08 01:24:58;;;;;;;2.85;2.20;;;;;;;17.80;100.00;100864.44;4998129;28;20489;-89
2023/05/08 01:27:41;;;;;;;2.03;1.83;;;;;;;17.73;100.00;100864.88;4939407;29;20047;-88
2023/05/08 01:30:47;;;;;;;2.05;1.88;;;;;;;17.75;100.00;100859.88;4954821;29;20058;-89
2023/05/08 01:33:32;;;;;;;2.85;1.83;;;;;;;17.65;100.00;100860.94;4890811;29;20083;-88
2023/05/08 01:36:22;;;;;;;2.08;1.88;;;;;;;17.58;100.00;100868.91;4992387;28;20057;-89
2023/05/08 01:39:19;;;;;;;2.17;1.98;;;;;;;17.49;100.00;100868.88;4983894;28;20046;-88
2023/05/08 01:42:02;;;;;;;2.20;1.90;;;;;;;17.55;100.00;100866.81;4982130;28;20046;-88
2023/05/08 01:44:39;;;;;;;2.17;1.98;;;;;;;17.51;100.00;100866.63;4997775;28;20041;-88
2023/05/08 01:47:10;;;;;;;2.10;1.90;;;;;;;17.53;100.00;100861.59;4997952;28;20412;-88
2023/05/08 01:49:48;;;;;;;2.60;2.08;;;;;;;17.55;100.00;100853.78;4997501;28;20381;-88
2023/05/08 01:52:32;;;;;;;1.63;1.52;;;;;;;17.74;100.00;100849.91;4999179;28;20041;-87
2023/05/08 01:55:11;;;;;;;5.65;1.98;;;;;;;17.72;100.00;100854.97;5014014;28;20052;-89
2023/05/08 01:57:44;;;;;;;2.50;1.98;;;;;;;17.76;100.00;100858.72;4998194;28;20046;-87
2023/05/08 02:00:13;;;;;;;2.40;1.92;;;;;;;17.81;100.00;100860.50;4982122;28;20042;-88
2023/05/08 02:02:43;;;;;;;2.47;1.50;;;;;;;17.82;100.00;100856.59;4997655;28;20045;-88
2023/05/08 02:05:13;;;;;;;2.83;1.80;;;;;;;17.84;100.00;100857.13;5015174;28;20050;-87
2023/05/08 02:07:42;;;;;;;3.60;1.83;;;;;;;17.87;100.00;100853.69;4998042;28;20057;-87
2023/05/08 02:10:12;;;;;;;1.60;1.50;;;;;;;17.95;100.00;100849.31;5014652;28;20050;-87
2023/05/08 02:12:42;;;;;;;2.08;1.50;;;;;;;17.93;100.00;100846.84;5013454;28;20057;-87
2023/05/08 02:15:14;;;;;;;1.90;1.55;;;;;;;17.96;100.00;100862.84;5015219;28;20046;-87
2023/05/08 02:17:44;;;;;;;1.70;1.60;;;;;;;17.88;100.00;100866.38;4997053;28;20575;-87
2023/05/08 02:20:14;;;;;;;1.40;1.30;;;;;;;17.88;100.00;100866.38;5014643;28;20068;-87
2023/05/08 02:22:49;;;;;;;2.03;1.50;;;;;;;17.79;100.00;100873.88;5013930;28;20496;-87
2023/05/08 02:25:18;;;;;;;1.52;1.42;;;;;;;17.81;100.00;100868.81;4997327;28;20515;-87
2023/05/08 02:27:47;;;;;;;1.58;1.48;;;;;;;17.65;100.00;100869.25;5014326;28;20053;-88
2023/05/08 02:30:16;;;;;;;1.90;1.52;;;;;;;17.56;100.00;100872.00;4996731;28;20050;-87
2023/05/08 02:32:46;;;;;;;1.52;1.27;;;;;;;17.62;100.00;100872.69;4995362;28;20057;-88
2023/05/08 02:35:16;;;;;;;1.90;1.63;;;;;;;17.67;100.00;100877.25;5013458;28;20038;-87
2023/05/08 02:37:50;;;;;;;2.15;1.42;;;;;;;17.77;100.00;100881.66;4997338;28;20050;-88
2023/05/08 02:40:21;;;;;;;2.33;1.88;;;;;;;17.81;100.00;100883.50;4997180;28;20045;-88
2023/05/08 02:42:49;;;;;;;2.40;1.63;;;;;;;17.75;100.00;100879.25;5011681;28;20401;-89
2023/05/08 02:45:17;;;;;;;1.90;1.70;;;;;;;17.79;100.00;100885.75;5014713;28;20050;-91
2023/05/08 02:47:59;;;;;;;1.80;1.70;;;;;;;17.82;100.00;100890.66;4966417;28;20233;-91
2023/05/08 02:50:47;;;;;;;4.00;2.30;;;;;;;17.80;100.00;100889.34;4996820;28;20071;-89
2023/05/08 02:53:23;;;;;;;2.55;2.35;;;;;;;17.77;100.00;100893.56;4996772;28;20034;-90
2023/05/08 02:55:57;;;;;;;4.53;2.40;;;;;;;17.64;100.00;100895.31;4996612;28;20038;-89
2023/05/08 02:58:34;;;;;;;2.70;2.20;;;;;;;17.62;100.00;100896.75;4996901;28;20520;-91
2023/05/08 03:01:14;;;;;;;2.33;2.13;;;;;;;17.66;100.00;100890.28;4980610;28;20397;-91
2023/05/08 03:03:44;;;;;;;3.65;2.70;;;;;;;17.61;100.00;100879.34;4996917;28;20046;-92
2023/05/08 03:06:15;;;;;;;2.92;2.40;;;;;;;17.69;100.00;100891.59;4981035;28;20054;-91
2023/05/08 03:08:46;;;;;;;3.60;2.75;;;;;;;17.77;100.00;100884.44;5013101;28;20054;-91
2023/05/08 03:11:38;;;;;;;4.93;2.38;;;;;;;17.56;100.00;100888.59;4980429;28;20053;-92
2023/05/08 03:14:10;;;;;;;4.75;3.30;;;;;;;17.56;100.00;100890.56;4962009;28;20112;-91
2023/05/08 03:16:42;;;;;;;4.57;2.97;;;;;;;17.62;100.00;100892.06;4982369;28;20520;-92
2023/05/08 03:19:26;;;;;;;3.53;2.92;;;;;;;17.67;100.00;100897.44;4996905;28;20387;-94
2023/05/08 03:21:57;;;;;;;3.30;2.77;;;;;;;17.64;100.00;100889.78;4962744;28;20054;-92
2023/05/08 03:24:27;;;;;;;4.68;3.30;;;;;;;17.63;100.00;100893.69;4979427;28;20382;-93
2023/05/08 03:26:56;;;;;;;3.47;3.17;;;;;;;17.79;100.00;100896.00;4978433;28;20058;-92
2023/05/08 03:29:26;;;;;;;4.10;3.15;;;;;;;17.84;100.00;100904.19;4977929;28;20050;-94
2023/05/08 03:31:56;;;;;;;4.93;3.58;;;;;;;17.83;100.00;100911.66;4978320;28;20046;-94
2023/05/08 03:34:24;;;;;;;5.47;3.10;;;;;;;17.80;100.00;100903.19;4994424;28;20046;-93
2023/05/08 03:36:52;;;;;;;5.53;3.92;;;;;;;17.78;100.00;100905.47;4977773;28;20053;-93
2023/05/08 03:39:20;;;;;;;4.13;3.72;;;;;;;17.86;100.00;100911.00;4977007;28;20053;-93
2023/05/08 03:41:48;;;;;;;5.18;3.92;;;;;;;17.75;100.00;100919.94;4964337;28;20053;-93
2023/05/08 03:44:17;;;;;;;4.80;3.85;;;;;;;17.75;100.00;100917.16;4978526;28;20057;-93
2023/05/08 03:46:47;;;;;;;5.30;4.05;;;;;;;17.71;100.00;100911.47;4977821;28;20385;-93
2023/05/08 03:49:18;;;;;;;5.97;4.05;;;;;;;17.73;100.00;100932.16;4977794;28;20049;-93
2023/05/08 03:51:47;;;;;;;6.70;3.35;;;;;;;17.67;100.00;100932.59;4978724;28;20050;-93
2023/05/08 03:54:15;;;;;;;5.15;3.60;;;;;;;17.73;100.00;100934.09;4977851;28;20050;-93
2023/05/08 03:56:44;;;;;;;5.15;3.70;;;;;;;17.74;100.00;100944.00;4962387;28;20051;-93
2023/05/08 03:59:20;;;;;;;5.35;4.20;;;;;;;17.60;100.00;100957.97;4962157;28;20053;-93
2023/05/08 04:02:03;;;;;;;5.10;4.03;;;;;;;17.75;100.00;100961.44;4962153;28;20043;-94
2023/05/08 04:04:43;;;;;;;8.00;4.20;;;;;;;17.56;100.00;100966.06;4978214;28;20046;-94
2023/05/08 04:07:23;;;;;;;5.57;4.53;;;;;;;17.54;100.00;100975.84;4976616;28;20050;-89
2023/05/08 04:10:10;;;;;;;6.65;4.50;;;;;;;17.67;100.00;100976.88;5008682;28;20050;-86
2023/05/08 04:12:53;;;;;;;5.55;4.60;;;;;;;17.65;100.00;100985.50;4959513;28;20058;-87
2023/05/08 04:15:25;;;;;;;6.43;5.03;;;;;;;17.71;100.00;100995.28;4993150;28;20042;-87
2023/05/08 04:18:07;;;;;;;6.40;5.30;;;;;;;17.66;100.00;100991.84;4991807;28;20053;-87
2023/05/08 04:20:39;;;;;;;8.13;4.90;;;;;;;17.63;100.00;100993.31;4992034;28;20050;-86
2023/05/08 04:23:10;;;;;;;6.93;5.22;;;;;;;17.59;100.00;101000.59;4992313;28;20046;-86
2023/05/08 04:25:41;;;;;;;6.07;5.28;;;;;;;17.62;100.00;101007.44;4989320;28;20054;-87
2023/05/08 04:28:10;;;;;;;6.03;5.30;;;;;;;17.72;100.00;101013.53;4991431;28;20050;-85
2023/05/08 04:30:39;;;;;;;6.38;5.22;;;;;;;17.68;100.00;101023.63;4991832;28;20042;-87
2023/05/08 04:33:08;;;;;;;8.40;5.45;;;;;;;17.76;100.00;101023.97;4991945;28;20038;-87
2023/05/08 04:35:36;;;;;;;6.00;5.00;;;;;;;17.72;100.00;101024.63;5008289;28;20042;-87
2023/05/08 04:38:04;;;;;;;6.10;5.50;;;;;;;17.69;100.00;101028.00;4975911;28;20485;-87
2023/05/08 04:40:32;;;;;;;8.85;5.93;;;;;;;17.70;100.00;101032.41;4991553;28;20034;-88
2023/05/08 04:43:00;;;;;;;10.52;5.82;;;;;;;17.59;100.00;101031.03;4975342;28;20055;-88
2023/05/08 04:45:28;;;;;;;8.40;5.90;;;;;;;17.65;100.00;101031.75;4991673;28;20054;-88
2023/05/08 04:47:56;;;;;;;8.63;6.03;;;;;;;17.91;100.00;101042.13;4991669;28;20401;-80
2023/05/08 04:50:24;;;;;;;8.23;6.05;;;;;;;18.39;100.00;101051.63;4990854;28;20473;-79
2023/05/08 04:52:52;;;;;;;9.40;6.25;;;;;;;18.64;100.00;101038.13;4991458;28;20046;-79
2023/05/08 04:55:20;;;;;;;8.02;5.45;;;;;;;18.86;100.00;101055.78;4990616;28;20516;-79
2023/05/08 04:57:48;;;;;;;6.57;5.50;;;;;;;18.86;100.00;101047.44;4991430;28;20045;-80
2023/05/08 05:00:16;;;;;;;7.60;5.63;;;;;;;19.09;100.00;101050.06;5008131;28;20049;-81
2023/05/08 05:02:46;;;;;;;6.13;5.45;;;;;;;19.16;100.00;101054.00;4991138;28;20043;-80
2023/05/08 05:05:14;;;;;;;7.30;5.47;;;;;;;19.12;100.00;101054.97;4991700;28;20512;-79
2023/05/08 05:07:42;;;;;;;6.40;5.43;;;;;;;19.22;100.00;101054.66;4990732;28;20050;-80
2023/05/08 05:10:11;;;;;;;6.00;5.40;;;;;;;19.20;100.00;101051.38;4991243;28;20062;-76
2023/05/08 05:12:39;;;;;;;6.70;5.72;;;;;;;19.19;100.00;101053.34;4986563;28;20042;-81
2023/05/08 05:15:09;;;;;;;6.63;5.28;;;;;;;19.22;100.00;101054.66;4993896;28;20049;-80
2023/05/08 05:17:38;;;;;;;6.53;5.72;;;;;;;19.19;100.00;101052.53;5004460;28;20050;-80
2023/05/08 05:20:07;;;;;;;7.38;5.93;;;;;;;19.30;100.00;101051.06;5011378;28;20046;-79
2023/05/08 05:22:36;;;;;;;9.43;5.40;;;;;;;19.42;100.00;101055.94;4993518;28;20394;-79
2023/05/08 05:25:04;;;;;;;6.80;5.25;;;;;;;19.28;100.00;101063.63;5011307;28;20045;-79
2023/05/08 05:27:37;;;;;;;5.05;4.53;;;;;;;19.19;100.00;101061.69;4992648;28;20053;-79
2023/05/08 05:30:07;;;;;;;5.65;4.65;;;;;;;19.05;100.00;101056.28;5005217;28;20057;-79
2023/05/08 05:32:37;;;;;;;8.18;5.43;;;;;;;18.95;100.00;101064.91;5010608;28;20053;-79
2023/05/08 05:35:09;;;;;;;6.78;5.60;;;;;;;19.07;100.00;101067.06;4993960;28;20045;-79
2023/05/08 05:37:37;;;;;;;7.32;5.05;;;;;;;19.15;100.00;101066.22;4994309;28;20472;-79
2023/05/08 05:40:06;;;;;;;5.47;4.85;;;;;;;19.10;100.00;101062.81;4994343;28;20398;-80
2023/05/08 05:42:35;;;;;;;8.32;4.88;;;;;;;19.06;100.00;101063.47;4993915;28;20448;-78
2023/05/08 05:45:04;;;;;;;7.32;5.03;;;;;;;19.05;100.00;101061.84;5010960;28;20054;-81
2023/05/08 05:47:32;;;;;;;6.53;4.63;;;;;;;19.02;100.00;101065.22;4992949;28;20061;-80
2023/05/08 05:50:02;;;;;;;5.05;4.50;;;;;;;19.01;100.00;101055.28;4994517;28;20041;-79
2023/05/08 05:52:32;;;;;;;4.85;3.90;;;;;;;19.10;100.00;101057.28;5010002;28;20057;-80
2023/05/08 05:55:00;;;;;;;7.50;4.22;;;;;;;19.05;100.00;101049.91;4994572;28;20042;-79
2023/05/08 05:57:28;;;;;;;7.30;3.90;;;;;;;19.01;100.00;101041.41;4994037;28;20046;-80
2023/05/08 05:59:56;;;;;;;4.78;3.40;;;;;;;19.01;100.00;101055.28;4993276;28;20042;-80
2023/05/08 06:02:24;;;;;;;4.38;3.65;;;;;;;18.58;100.00;101039.41;5010513;28;20038;-80
2023/05/08 06:04:52;;;;;;;3.95;3.55;;;;;;;18.82;100.00;101046.47;5010534;28;20057;-80
2023/05/08 06:07:21;;;;;;;4.82;4.15;;;;;;;18.99;100.00;101060.34;4995315;28;20397;-80
2023/05/08 06:09:50;;;;;;;5.53;4.40;;;;;;;19.11;100.00;101058.91;5015231;28;20042;-80
2023/05/08 06:12:18;;;;;;;4.78;4.20;;;;;;;19.22;100.00;101057.44;4997419;28;20061;-80
2023/05/08 06:14:46;;;;;;;4.85;4.30;;;;;;;19.13;100.00;101054.66;4997535;28;20053;-80
2023/05/08 06:17:14;;;;;;;5.85;4.28;;;;;;;19.12;100.00;101050.25;4997434;28;20046;-80
2023/05/08 06:19:42;;;;;;;6.55;4.35;;;;;;;19.23;100.00;101061.84;5015027;28;20046;-80
2023/05/08 06:22:10;;;;;;;5.88;3.80;;;;;;;19.26;100.00;101055.63;5015355;28;20046;-80
2023/05/08 06:24:38;;;;;;;5.28;4.15;;;;;;;19.06;100.00;101057.09;5014955;28;20050;-80
2023/05/08 06:27:06;;;;;;;4.47;3.97;;;;;;;19.06;100.00;101046.00;4997528;28;20053;-80
2023/05/08 06:29:34;;;;;;;5.22;3.38;;;;;;;19.14;100.00;101058.22;5014878;28;20393;-80
2023/05/08 06:32:02;;;;;;;7.00;4.07;;;;;;;19.41;100.00;101059.03;5014773;28;20057;-80
2023/05/08 06:34:30;;;;;;;4.63;3.70;;;;;;;19.25;100.00;101059.53;5014803;28;20057;-80
2023/05/08 06:36:58;;;;;;;6.47;4.03;;;;;;;19.48;100.00;101056.56;5015099;28;20053;-80
2023/05/08 06:39:26;;;;;;;4.18;3.78;;;;;;;19.63;100.00;101059.97;5014636;28;20046;-80
2023/05/08 06:41:54;;;;;;;6.13;4.55;;;;;;;19.64;100.00;101067.16;5014659;28;20042;-80
2023/05/08 06:44:29;;;;;;;6.78;5.05;;;;;;;19.74;100.00;101069.56;4997095;28;20512;-80
2023/05/08 06:46:57;;;;;;;9.93;4.70;;;;;;;19.68;100.00;101065.34;5014514;28;20416;-80
2023/05/08 06:49:25;;;;;;;5.97;4.97;;;;;;;19.53;100.00;101064.72;5014488;28;20519;-80
2023/05/08 06:51:53;;;;;;;7.28;4.78;;;;;;;19.48;100.00;101064.91;5014351;28;20046;-79
2023/05/08 06:54:24;;;;;;;7.50;4.85;;;;;;;19.29;100.00;101062.47;5014480;28;20041;-80
2023/05/08 06:56:53;;;;;;;10.55;5.00;;;;;;;19.33;100.00;101072.59;5014355;28;20481;-80
2023/05/08 06:59:22;;;;;;;6.15;4.45;;;;;;;19.31;100.00;101066.53;5014289;28;20046;-79
2023/05/08 07:01:50;;;;;;;5.88;4.60;;;;;;;19.18;100.00;101070.31;4997008;28;20392;-79
2023/05/08 07:04:18;;;;;;;7.95;4.55;;;;;;;19.20;100.00;101068.03;5013895;28;20057;-79
2023/05/08 07:06:46;;;;;;;5.07;4.20;;;;;;;19.24;100.00;101074.56;5013830;28;20477;-79
2023/05/08 07:09:15;;;;;;;5.40;4.60;;;;;;;19.28;100.00;101074.72;5013907;28;20049;-79
2023/05/08 07:11:43;;;;;;;5.95;4.30;;;;;;;19.07;100.00;101073.41;5013712;28;20081;-80
2023/05/08 07:14:11;;;;;;;5.97;4.65;;;;;;;19.19;100.00;101078.31;5013672;28;20053;-80
2023/05/08 07:16:39;;;;;;;5.22;4.45;;;;;;;19.36;100.00;101085.00;4996081;28;20046;-80
2023/05/08 07:19:07;;;;;;;5.47;4.70;;;;;;;19.45;100.00;101071.09;5013017;28;20042;-79
2023/05/08 07:21:35;;;;;;;7.85;4.43;;;;;;;19.46;100.00;101083.84;4996101;28;20053;-80
2023/05/08 07:24:03;;;;;;;6.72;4.78;;;;;;;19.57;100.00;101084.31;5013641;28;20050;-79
2023/05/08 07:26:31;;;;;;;4.85;4.30;;;;;;;19.78;100.00;101086.38;4995404;28;20049;-79
2023/05/08 07:28:59;;;;;;;5.30;4.50;;;;;;;19.72;100.00;101094.09;5013593;28;20046;-79
2023/05/08 07:31:27;;;;;;;6.35;4.22;;;;;;;19.59;100.00;101090.34;4996148;28;20057;-79
2023/05/08 07:33:55;;;;;;;4.90;4.25;;;;;;;19.52;100.00;101092.81;5013783;28;20057;-80
2023/05/08 07:36:23;;;;;;;5.00;4.47;;;;;;;19.54;100.00;101091.34;4996089;28;20041;-79
2023/05/08 07:38:51;;;;;;;5.65;3.90;;;;;;;19.54;100.00;101093.28;5013820;28;20042;-79
2023/05/08 07:41:19;;;;;;;4.75;4.03;;;;;;;19.65;100.00;101099.34;5013430;28;20430;-79
2023/05/08 07:43:46;;;;;;;5.10;4.18;;;;;;;19.55;100.00;101101.28;5013356;28;20050;-79
2023/05/08 07:46:16;;;;;;;3.63;3.33;;;;;;;19.51;100.00;101097.56;5013439;28;20050;-79
2023/05/08 07:48:44;;;;;;;3.92;3.53;;;;;;;19.58;100.00;101105.38;5013388;28;20045;-79
2023/05/08 07:51:13;;;;;;;4.88;3.95;;;;;;;19.33;100.00;101100.34;4995514;28;20050;-80
2023/05/08 07:53:40;;;;;;;6.50;3.92;;;;;;;19.32;100.00;101100.66;5013286;28;20042;-80
2023/05/08 07:56:08;;;;;;;8.02;5.03;;;;;;;19.10;100.00;101096.09;5013220;28;20054;-80
2023/05/08 07:58:36;;;;;;;8.05;4.75;;;;;;;19.08;100.00;101104.75;5013030;28;20480;-80
2023/05/08 08:01:04;;;;;;;7.63;4.55;;;;;;;19.01;100.00;101112.72;4995467;28;20511;-80
2023/05/08 08:03:32;;;;;;;7.05;4.45;;;;;;;18.98;100.00;101105.84;5012927;28;20045;-80
2023/05/08 08:06:00;;;;;;;7.22;4.88;;;;;;;19.04;100.00;101109.31;5013010;28;20046;-80
2023/05/08 08:08:29;;;;;;;5.57;4.88;;;;;;;19.10;100.00;101107.22;5012992;28;20404;-80
2023/05/08 08:10:57;;;;;;;9.10;5.22;;;;;;;19.33;100.00;101102.28;5013005;28;20045;-80
2023/05/08 08:13:25;;;;;;;7.57;5.30;;;;;;;19.36;100.00;101107.22;5012779;28;20045;-80
2023/05/08 08:15:56;;;;;;;7.22;4.53;;;;;;;19.46;100.00;101108.81;5012967;28;20489;-80
2023/05/08 08:18:24;;;;;;;7.68;5.03;;;;;;;19.42;100.00;101114.22;5012867;28;20405;-80
2023/05/08 08:20:51;;;;;;;6.10;5.13;;;;;;;19.25;100.00;101106.69;4994892;28;20496;-80
2023/05/08 08:23:20;;;;;;;7.57;5.75;;;;;;;19.28;100.00;101108.00;5012797;28;20057;-80
2023/05/08 08:25:47;;;;;;;7.53;5.70;;;;;;;19.21;100.00;101108.47;4995013;28;20394;-80
2023/05/08 08:28:16;;;;;;;7.68;5.75;;;;;;;19.15;100.00;101116.16;5012715;28;20042;-80
2023/05/08 08:30:44;;;;;;;10.38;5.57;;;;;;;19.15;100.00;101115.34;5012640;28;20049;-80
2023/05/08 08:33:13;;;;;;;8.10;5.38;;;;;;;19.16;100.00;101123.34;5012741;28;20050;-80
2023/05/08 08:35:42;;;;;;;8.15;5.30;;;;;;;19.18;100.00;101117.47;4995593;28;20420;-80
2023/05/08 08:38:10;;;;;;;6.10;5.45;;;;;;;19.10;100.00;101109.97;5012616;28;20489;-80
2023/05/08 08:40:40;;;;;;;6.95;5.55;;;;;;;19.36;100.00;101117.47;4979089;28;20397;-80
2023/05/08 08:43:11;;;;;;;6.38;5.15;;;;;;;19.47;100.00;101118.78;5012502;28;20045;-80
2023/05/08 08:45:39;;;;;;;6.97;5.38;;;;;;;19.39;100.00;101125.13;4995423;28;20057;-80
2023/05/08 08:48:12;;;;;;;6.88;5.10;;;;;;;19.57;100.00;101114.84;5012735;28;20053;-80
2023/05/08 08:50:43;;;;;;;6.68;5.30;;;;;;;19.64;100.00;101123.50;5012365;28;20054;-80
2023/05/08 08:53:21;;;;;;;9.60;6.03;;;;;;;19.78;100.00;101123.31;5012657;28;20048;-80
2023/05/08 08:55:52;;;;;;;6.85;5.35;;;;;;;19.77;100.00;101132.78;5013025;28;20409;-80
2023/05/08 08:58:24;;;;;;;7.72;5.40;;;;;;;19.89;100.00;101123.75;5012414;28;20052;-80
2023/05/08 09:00:54;;;;;;;9.05;5.30;;;;;;;20.01;100.00;101129.47;5012343;28;20396;-80
2023/05/08 09:03:22;;;;;;;8.77;5.78;;;;;;;20.10;100.00;101128.66;5012200;28;20114;-80
2023/05/08 09:05:51;;;;;;;11.95;6.03;;;;;;;20.03;100.00;101136.69;5012085;28;20049;-80
2023/05/08 09:08:19;;;;;;;7.38;5.43;;;;;;;20.10;100.00;101126.66;5012058;28;20050;-80
2023/05/08 09:10:47;;;;;;;6.45;5.35;;;;;;;20.19;100.00;101125.84;5011914;28;20052;-80
2023/05/08 09:13:15;;;;;;;6.70;5.38;;;;;;;20.31;100.00;101125.13;5011882;28;20053;-80
2023/05/08 09:15:46;;;;;;;8.27;6.10;;;;;;;20.24;100.00;101122.88;5012388;28;20361;-80
2023/05/08 09:18:18;;;;;;;9.60;5.00;;;;;;;20.43;100.00;101136.34;5012135;28;20042;-80
2023/05/08 09:20:46;;;;;;;7.90;5.40;;;;;;;20.50;100.00;101127.50;5011998;28;20038;-80
2023/05/08 09:23:16;;;;;;;8.35;6.28;;;;;;;20.29;100.00;101125.47;5012010;28;20416;-80
2023/05/08 09:25:47;;;;;;;7.68;6.07;;;;;;;20.14;99.90;101137.97;5011881;28;20525;-80
2023/05/08 09:28:19;;;;;;;8.43;5.55;;;;;;;20.16;100.00;101138.44;5012025;28;20050;-80
2023/05/08 09:30:51;;;;;;;8.25;5.53;;;;;;;19.77;100.00;101149.44;5011826;28;20073;-80
2023/05/08 09:33:21;;;;;;;8.05;5.78;;;;;;;19.89;100.00;101137.66;5011995;28;20053;-80
2023/05/08 09:35:50;;;;;;;8.65;5.75;;;;;;;19.82;100.00;101142.91;5011958;28;20052;-80
2023/05/08 09:38:34;;;;;;;7.22;5.45;;;;;;;19.74;100.00;101141.75;4994506;28;20045;-80
2023/05/08 09:41:16;;;;;;;6.65;5.80;;;;;;;19.81;100.00;101146.81;5011919;28;20046;-80
2023/05/08 09:43:59;;;;;;;10.85;6.70;;;;;;;20.02;100.00;101141.41;5015894;28;20389;-80
2023/05/08 09:46:27;;;;;;;7.43;5.28;;;;;;;20.25;99.30;101139.19;5015833;28;20057;-80
2023/05/08 09:48:57;;;;;;;7.43;5.43;;;;;;;20.23;98.56;101154.59;5015777;28;20069;-79
2023/05/08 09:51:28;;;;;;;10.30;5.57;;;;;;;20.21;97.70;101154.94;5015552;28;20046;-80
2023/05/08 09:53:58;;;;;;;10.80;5.80;;;;;;;20.18;99.54;101160.34;5015615;28;20401;-79
2023/05/08 09:56:39;;;;;;;7.50;5.60;;;;;;;20.10;98.43;101156.44;5015540;28;20053;-80
2023/05/08 09:59:27;;;;;;;7.20;5.63;;;;;;;20.06;96.47;101152.69;5015528;28;20049;-80
2023/05/08 10:01:57;;;;;;;7.60;5.30;;;;;;;20.07;96.35;101159.84;5015342;28;20064;-80
2023/05/08 10:04:32;;;;;;;9.13;5.03;;;;;;;19.98;94.73;101155.16;5015158;28;20053;-79
2023/05/08 10:07:01;;;;;;;8.68;5.93;;;;;;;20.11;96.37;101161.66;5015303;28;20049;-80
2023/05/08 10:09:29;;;;;;;6.25;5.07;;;;;;;20.03;96.35;101150.56;5015161;28;20049;-79
2023/05/08 10:12:09;;;;;;;6.00;4.90;;;;;;;20.16;94.53;101157.06;5015207;28;20038;-79
2023/05/08 10:14:37;;;;;;;8.38;5.07;;;;;;;20.38;92.36;101154.03;5015004;28;20496;-81
2023/05/08 10:17:09;;;;;;;6.63;4.63;;;;;;;20.20;90.51;101156.09;5015117;28;20046;-80
2023/05/08 10:19:42;;;;;;;5.78;4.90;;;;;;;20.37;88.19;101157.16;4997748;28;20054;-80
2023/05/08 10:22:12;;;;;;;5.95;4.82;;;;;;;20.71;89.57;101155.34;5015068;28;20052;-80
2023/05/08 10:24:43;;;;;;;6.85;5.03;;;;;;;21.05;90.63;101159.13;4997613;28;20046;-80
2023/05/08 10:27:18;;;;;;;5.88;4.63;;;;;;;21.25;88.74;101150.31;5015177;28;20050;-80
2023/05/08 10:29:53;;;;;;;7.70;5.15;;;;;;;21.12;89.59;101154.97;5001119;28;20053;-80
2023/05/08 10:32:23;;;;;;;7.05;5.00;;;;;;;21.20;85.89;101149.34;5004355;28;20057;-79
2023/05/08 10:34:55;;;;;;;9.40;4.90;;;;;;;21.32;87.09;101150.56;5013236;28;20053;-79
2023/05/08 10:37:23;;;;;;;5.72;4.47;;;;;;;21.35;88.77;101147.09;5000624;28;20073;-79
2023/05/08 10:39:53;;;;;;;7.38;5.00;;;;;;;21.35;86.11;101147.09;5004350;28;20493;-79
2023/05/08 10:42:21;;;;;;;7.50;4.65;;;;;;;21.17;87.50;101136.09;4992830;28;20049;-79
2023/05/08 10:44:49;;;;;;;5.35;4.10;;;;;;;21.45;86.24;101127.19;4993332;28;20038;-79
2023/05/08 10:47:33;;;;;;;8.27;4.88;;;;;;;20.94;85.73;101130.88;4996706;28;20481;-79
2023/05/08 10:50:22;;;;;;;8.50;4.82;;;;;;;21.46;86.05;101120.47;4997172;28;20482;-79
2023/05/08 10:53:06;;;;;;;9.45;5.35;;;;;;;21.59;84.61;101124.13;4992633;28;20063;-79
2023/05/08 10:55:37;;;;;;;6.50;4.50;;;;;;;21.57;82.86;101123.66;4994346;28;20081;-79
2023/05/08 10:58:27;;;;;;;6.10;4.50;;;;;;;21.46;82.08;101120.47;4994136;28;20045;-79
2023/05/08 11:00:58;;;;;;;7.38;4.85;;;;;;;21.69;83.02;101130.41;5009261;28;20042;-79
2023/05/08 11:03:28;;;;;;;8.30;5.82;;;;;;;21.61;84.38;101121.00;4994450;28;20057;-79
2023/05/08 11:06:00;;;;;;;5.50;3.60;;;;;;;21.57;80.71;101117.25;4976755;28;20409;-79
2023/05/08 11:08:30;;;;;;;4.25;3.35;;;;;;;21.50;79.03;101123.38;4993638;28;20042;-79
2023/05/08 11:11:03;;;;;;;5.63;3.13;;;;;;;21.40;78.34;101129.38;4992948;28;20050;-79
2023/05/08 11:13:36;;;;;;;5.03;3.60;;;;;;;21.35;77.48;101122.88;4994326;28;20051;-79
2023/05/08 11:16:05;;;;;;;4.88;3.33;;;;;;;21.27;77.85;101120.97;4993026;28;20504;-79
2023/05/08 11:18:33;;;;;;;3.80;3.47;;;;;;;21.66;76.86;101129.16;4993959;28;20047;-79
2023/05/08 11:21:22;;;;;;;4.75;3.42;;;;;;;21.36;74.48;101123.66;4979097;28;20053;-79
2023/05/08 11:23:56;;;;;;;5.28;3.58;;;;;;;21.51;76.64;101135.34;4994066;28;20047;-79
2023/05/08 11:26:39;;;;;;;;;;;;;;;21.11;76.12;101136.66;4993859;28;20053;-79
2023/05/08 11:29:17;;;;;;;5.25;3.83;;;;;;;21.44;78.09;101133.94;4992385;28;20380;-80
2023/05/08 11:31:52;;;;;;;4.15;3.75;;;;;;;21.54;78.04;101131.84;4994186;28;20065;-80
2023/05/08 11:34:48;;;;;;;5.97;3.60;;;;;;;21.67;75.49;101139.13;4994184;28;20046;-79
2023/05/08 11:37:18;;;;;;;3.65;3.28;;;;;;;21.66;72.63;101148.63;4988583;28;20413;-79
2023/05/08 11:39:50;;;;;;;3.40;2.83;;;;;;;21.70;68.46;101149.59;4998202;28;20042;-79